Time;durP1;ratioP1;P1;durP2;ratioP2;P2;SDS_P1;SDS_P2;PMS_P1;PMS_P2;Temp;Humidity;BMP_temperature;BMP_pressure;BME280_temperature;BME280_humidity;BME280_pressure;Samples;Min_cycle;Max_cycle;Signal;HPM_P1;HPM_P2
2023/08/22 00:01:27;;;;;;;11.60;7.50;;;17.40;99.90;;;;;;7370921;19;20102;-64
2023/08/22 00:03:56;;;;;;;11.45;6.97;;;17.40;99.90;;;;;;7372071;19;20055;-63
2023/08/22 00:06:24;;;;;;;7.35;6.65;;;17.50;99.90;;;;;;7365912;19;20023;-63
2023/08/22 00:08:50;;;;;;;10.50;7.43;;;17.40;99.90;;;;;;7369695;19;20486;-64
2023/08/22 00:11:16;;;;;;;12.02;8.40;;;17.40;99.90;;;;;;7371103;19;20070;-65
2023/08/22 00:13:42;;;;;;;12.23;8.13;;;17.40;99.90;;;;;;7372378;19;20018;-63
2023/08/22 00:16:09;;;;;;;11.30;7.95;;;17.40;99.90;;;;;;7369113;19;20093;-63
2023/08/22 00:18:35;;;;;;;11.98;7.65;;;17.40;99.90;;;;;;7368077;19;20601;-63
2023/08/22 00:21:02;;;;;;;10.25;7.38;;;17.40;99.90;;;;;;7370541;19;20024;-64
2023/08/22 00:23:31;;;;;;;9.40;6.70;;;17.40;99.90;;;;;;7370949;19;20010;-62
2023/08/22 00:25:57;;;;;;;7.13;6.00;;;17.20;99.90;;;;;;7370811;19;20022;-64
2023/08/22 00:28:24;;;;;;;7.70;6.55;;;17.20;99.90;;;;;;7370113;19;20026;-63
2023/08/22 00:30:53;;;;;;;6.35;5.35;;;17.20;99.90;;;;;;7371355;19;20014;-62
2023/08/22 00:33:19;;;;;;;11.77;5.88;;;17.10;99.90;;;;;;7366508;19;20029;-63
2023/08/22 00:35:45;;;;;;;10.90;6.43;;;17.10;99.90;;;;;;7368256;19;20019;-63
2023/08/22 00:38:11;;;;;;;8.63;6.65;;;17.00;99.90;;;;;;7372217;19;20014;-63
2023/08/22 00:40:38;;;;;;;11.15;7.10;;;17.00;99.90;;;;;;7369036;19;20025;-63
2023/08/22 00:43:04;;;;;;;9.55;8.10;;;16.90;99.90;;;;;;7369981;19;20486;-62
2023/08/22 00:45:30;;;;;;;9.75;7.85;;;16.90;99.90;;;;;;7366096;19;20023;-63
2023/08/22 00:47:57;;;;;;;12.23;7.70;;;16.90;99.90;;;;;;7370814;19;20395;-63
2023/08/22 00:50:24;;;;;;;10.07;7.53;;;16.90;99.90;;;;;;7365626;19;20408;-63
2023/08/22 00:52:50;;;;;;;8.52;7.10;;;16.90;99.90;;;;;;7369157;19;20103;-62
2023/08/22 00:55:18;;;;;;;10.05;7.43;;;16.90;99.90;;;;;;7366462;19;20087;-62
2023/08/22 00:57:45;;;;;;;9.68;7.78;;;16.90;99.90;;;;;;7366747;19;20025;-62
2023/08/22 01:00:11;;;;;;;9.57;8.32;;;16.90;99.90;;;;;;7363652;19;20023;-62
2023/08/22 01:02:41;;;;;;;10.75;8.27;;;16.90;99.90;;;;;;7360469;19;20019;-62
2023/08/22 01:05:09;;;;;;;9.68;8.63;;;17.00;99.90;;;;;;7364956;19;20014;-63
2023/08/22 01:07:46;;;;;;;10.63;7.80;;;17.00;99.90;;;;;;7365990;19;20018;-63
2023/08/22 01:10:29;;;;;;;10.38;8.55;;;17.00;99.90;;;;;;7366755;19;20022;-63
2023/08/22 01:13:19;;;;;;;11.63;7.47;;;17.00;99.90;;;;;;7366365;19;20537;-63
2023/08/22 01:15:47;;;;;;;7.63;6.70;;;16.90;99.90;;;;;;7362748;19;20058;-63
2023/08/22 01:18:15;;;;;;;6.90;6.18;;;16.90;99.90;;;;;;7368315;19;20014;-62
2023/08/22 01:20:41;;;;;;;8.50;6.93;;;16.90;99.90;;;;;;7368364;19;20026;-63
2023/08/22 01:23:08;;;;;;;9.55;6.97;;;16.90;99.90;;;;;;7367902;19;20506;-63
2023/08/22 01:25:36;;;;;;;9.55;8.15;;;16.80;99.90;;;;;;7369184;19;20056;-63
2023/08/22 01:28:22;;;;;;;8.30;7.40;;;16.80;99.90;;;;;;7368437;19;20018;-63
2023/08/22 01:30:55;;;;;;;11.10;8.52;;;16.80;99.90;;;;;;7362961;19;20451;-62
2023/08/22 01:33:27;;;;;;;12.88;9.35;;;16.80;99.90;;;;;;7365990;19;20022;-63
2023/08/22 01:35:55;;;;;;;11.90;10.70;;;16.80;99.90;;;;;;7368616;19;20356;-62
2023/08/22 01:38:26;;;;;;;11.88;9.20;;;16.80;99.90;;;;;;7370026;19;20027;-64
2023/08/22 01:40:53;;;;;;;9.35;8.50;;;16.80;99.90;;;;;;7367389;19;20023;-64
2023/08/22 01:43:22;;;;;;;12.85;9.98;;;16.80;99.90;;;;;;7370128;19;20473;-63
2023/08/22 01:45:49;;;;;;;12.93;10.35;;;16.80;99.90;;;;;;7364800;19;20521;-62
2023/08/22 01:48:15;;;;;;;11.55;10.45;;;16.90;99.90;;;;;;7368082;19;20018;-62
2023/08/22 01:50:43;;;;;;;10.68;9.57;;;16.80;99.90;;;;;;7367110;19;20498;-63
2023/08/22 01:53:09;;;;;;;11.82;9.13;;;16.80;99.90;;;;;;7368637;19;20019;-62
2023/08/22 01:55:35;;;;;;;11.73;8.63;;;16.80;99.90;;;;;;7364837;19;20074;-63
2023/08/22 01:58:03;;;;;;;11.40;10.27;;;16.80;99.90;;;;;;7366202;19;20464;-63
2023/08/22 02:00:30;;;;;;;10.07;8.82;;;16.80;99.90;;;;;;7368396;19;20015;-63
2023/08/22 02:02:56;;;;;;;10.55;8.65;;;16.80;99.90;;;;;;7365278;19;20025;-63
2023/08/22 02:05:25;;;;;;;12.70;9.25;;;16.70;99.90;;;;;;7368136;19;20022;-63
2023/08/22 02:07:51;;;;;;;9.02;8.00;;;16.70;99.90;;;;;;7355473;19;20023;-63
2023/08/22 02:10:17;;;;;;;11.00;7.93;;;16.70;99.90;;;;;;7367037;19;20506;-63
2023/08/22 02:12:44;;;;;;;9.20;8.30;;;16.70;99.90;;;;;;7359270;19;20354;-64
2023/08/22 02:15:10;;;;;;;9.25;8.35;;;16.70;99.90;;;;;;7364219;19;20485;-63
2023/08/22 02:17:36;;;;;;;9.13;8.02;;;16.70;99.90;;;;;;7362373;19;20050;-63
2023/08/22 02:20:04;;;;;;;13.15;8.40;;;16.70;99.90;;;;;;7364103;19;20078;-63
2023/08/22 02:22:30;;;;;;;10.55;8.45;;;16.60;99.90;;;;;;7362762;19;20026;-64
2023/08/22 02:24:56;;;;;;;10.00;8.80;;;16.50;99.90;;;;;;7362136;19;20022;-62
2023/08/22 02:27:28;;;;;;;12.60;7.72;;;16.60;99.90;;;;;;7364988;19;20025;-63
2023/08/22 02:29:54;;;;;;;10.18;8.68;;;16.50;99.90;;;;;;7371113;19;20029;-63
2023/08/22 02:32:20;;;;;;;10.82;9.70;;;16.50;99.90;;;;;;7368611;19;20018;-63
2023/08/22 02:34:46;;;;;;;11.48;10.10;;;16.40;99.90;;;;;;7363979;19;20094;-63
2023/08/22 02:37:13;;;;;;;12.18;9.88;;;16.40;99.90;;;;;;7365051;19;20014;-63
2023/08/22 02:39:39;;;;;;;9.77;8.57;;;16.40;99.90;;;;;;7362358;19;20022;-62
2023/08/22 02:42:05;;;;;;;8.73;7.53;;;16.40;99.90;;;;;;7370585;19;20482;-62
2023/08/22 02:44:32;;;;;;;13.25;8.82;;;16.40;99.90;;;;;;7370501;19;20485;-63
2023/08/22 02:46:58;;;;;;;8.77;7.88;;;16.30;99.90;;;;;;7371563;19;20025;-62
2023/08/22 02:49:24;;;;;;;9.57;8.68;;;16.20;99.90;;;;;;7367706;19;20023;-62
2023/08/22 02:51:50;;;;;;;10.32;8.88;;;16.20;99.90;;;;;;7367757;19;20509;-62
2023/08/22 02:54:17;;;;;;;9.07;7.80;;;16.20;99.90;;;;;;7373671;19;20014;-62
2023/08/22 02:56:43;;;;;;;10.20;8.00;;;16.20;99.90;;;;;;7369154;19;21456;-63
2023/08/22 02:59:09;;;;;;;8.60;7.70;;;16.20;99.90;;;;;;7373559;19;20852;-62
2023/08/22 03:01:36;;;;;;;9.85;8.82;;;16.20;99.90;;;;;;7373447;19;20022;-64
2023/08/22 03:04:02;;;;;;;11.32;10.10;;;16.20;99.90;;;;;;7368754;19;20022;-62
2023/08/22 03:06:28;;;;;;;11.80;9.18;;;16.20;99.90;;;;;;7367030;19;20023;-63
2023/08/22 03:08:54;;;;;;;10.82;9.48;;;16.20;99.90;;;;;;7370491;19;20019;-66
2023/08/22 03:11:20;;;;;;;11.32;9.85;;;16.20;99.90;;;;;;7373606;19;20038;-63
2023/08/22 03:13:47;;;;;;;14.43;10.35;;;16.20;99.90;;;;;;7373155;19;20022;-63
2023/08/22 03:16:14;;;;;;;11.63;10.43;;;16.20;99.90;;;;;;7369328;19;20502;-63
2023/08/22 03:18:43;;;;;;;13.57;10.30;;;16.20;99.90;;;;;;7371107;19;20070;-62
2023/08/22 03:21:10;;;;;;;12.98;10.35;;;16.20;99.90;;;;;;7371441;19;20017;-63
2023/08/22 03:23:36;;;;;;;13.38;10.43;;;16.20;99.90;;;;;;7370872;19;20037;-62
2023/08/22 03:26:02;;;;;;;11.52;10.23;;;16.30;99.90;;;;;;7370544;19;20591;-63
2023/08/22 03:28:33;;;;;;;12.93;11.25;;;16.20;99.90;;;;;;7371307;19;20687;-64
2023/08/22 03:31:04;;;;;;;12.13;10.90;;;16.30;99.90;;;;;;7373232;19;20510;-63
2023/08/22 03:33:33;;;;;;;15.07;13.48;;;16.40;99.90;;;;;;7369658;19;20022;-63
2023/08/22 03:36:02;;;;;;;13.88;12.45;;;16.30;99.90;;;;;;7374552;19;20519;-63
2023/08/22 03:38:28;;;;;;;17.25;13.50;;;16.30;99.90;;;;;;7369534;19;20415;-63
2023/08/22 03:40:58;;;;;;;17.23;13.73;;;16.30;99.90;;;;;;7375223;19;20006;-63
2023/08/22 03:43:24;;;;;;;14.70;12.50;;;16.30;99.90;;;;;;7372440;19;20015;-63
2023/08/22 03:45:51;;;;;;;14.85;13.15;;;16.30;99.90;;;;;;7372617;19;20014;-62
2023/08/22 03:48:17;;;;;;;15.32;12.73;;;16.20;99.90;;;;;;7372177;19;20090;-63
2023/08/22 03:50:44;;;;;;;13.10;11.60;;;16.20;99.90;;;;;;7370694;19;20022;-63
2023/08/22 03:53:12;;;;;;;12.23;11.00;;;16.20;99.90;;;;;;7366912;19;20420;-63
2023/08/22 03:55:40;;;;;;;15.07;11.52;;;16.00;99.90;;;;;;7371695;19;20022;-63
2023/08/22 03:58:07;;;;;;;11.90;10.55;;;16.00;99.90;;;;;;7369814;19;20017;-63
2023/08/22 04:00:33;;;;;;;13.30;10.27;;;15.90;99.90;;;;;;7371300;19;20584;-63
2023/08/22 04:03:00;;;;;;;13.40;12.07;;;15.80;99.90;;;;;;7365894;19;20427;-63
2023/08/22 04:05:27;;;;;;;12.50;10.65;;;15.80;99.90;;;;;;7371000;19;20021;-63
2023/08/22 04:07:53;;;;;;;14.55;13.10;;;15.80;99.90;;;;;;7368505;19;20022;-63
2023/08/22 04:10:21;;;;;;;12.02;10.88;;;15.70;99.90;;;;;;7371851;19;20026;-63
2023/08/22 04:12:47;;;;;;;13.00;11.60;;;15.60;99.90;;;;;;7369715;19;20048;-64
2023/08/22 04:15:14;;;;;;;13.10;11.70;;;15.60;99.90;;;;;;7370760;19;20069;-63
2023/08/22 04:17:44;;;;;;;9.50;8.57;;;15.50;99.90;;;;;;7366449;19;20018;-63
2023/08/22 04:20:11;;;;;;;9.52;8.63;;;15.40;99.90;;;;;;7370697;19;20094;-63
2023/08/22 04:22:40;;;;;;;8.85;7.30;;;15.30;99.90;;;;;;7371591;19;20494;-63
2023/08/22 04:25:07;;;;;;;9.02;8.10;;;15.30;99.90;;;;;;7369485;19;20854;-63
2023/08/22 04:27:34;;;;;;;10.60;7.88;;;15.20;99.90;;;;;;7366015;19;20102;-63
2023/08/22 04:30:01;;;;;;;11.50;9.45;;;15.20;99.90;;;;;;7373057;19;20427;-63
2023/08/22 04:32:27;;;;;;;8.73;7.82;;;15.10;99.90;;;;;;7367775;19;20022;-63
2023/08/22 04:34:54;;;;;;;9.32;8.25;;;15.10;99.90;;;;;;7370494;19;20018;-63
2023/08/22 04:37:21;;;;;;;8.52;7.60;;;15.10;99.90;;;;;;7368330;19;20014;-63
2023/08/22 04:39:48;;;;;;;8.73;7.72;;;15.10;99.90;;;;;;7372620;19;20123;-63
2023/08/22 04:42:34;;;;;;;8.77;7.97;;;15.00;99.90;;;;;;7371210;19;20043;-64
2023/08/22 04:45:06;;;;;;;9.35;8.40;;;15.00;99.90;;;;;;7366551;19;20018;-63
2023/08/22 04:47:32;;;;;;;7.82;7.13;;;15.00;99.90;;;;;;7366970;19;20043;-63
2023/08/22 04:49:59;;;;;;;8.25;7.38;;;15.00;99.90;;;;;;7369104;19;20521;-68
2023/08/22 04:52:26;;;;;;;9.75;8.82;;;15.00;99.90;;;;;;7365943;19;20023;-63
2023/08/22 04:54:55;;;;;;;10.02;8.98;;;15.00;99.90;;;;;;7370940;19;20015;-62
2023/08/22 04:57:23;;;;;;;11.88;9.52;;;14.90;99.90;;;;;;7369557;19;20033;-63
2023/08/22 04:59:53;;;;;;;11.63;10.02;;;14.90;99.90;;;;;;7370427;19;20018;-62
2023/08/22 05:02:21;;;;;;;12.43;11.23;;;15.00;99.90;;;;;;7366066;19;20476;-63
2023/08/22 05:04:49;;;;;;;13.15;11.63;;;15.00;99.90;;;;;;7366494;19;20576;-62
2023/08/22 05:07:15;;;;;;;14.80;12.27;;;15.10;99.90;;;;;;7367666;19;20404;-62
2023/08/22 05:09:41;;;;;;;12.48;11.13;;;15.10;99.90;;;;;;7368354;19;20052;-63
2023/08/22 05:12:08;;;;;;;12.80;11.50;;;15.20;99.90;;;;;;7366770;19;20018;-61
2023/08/22 05:14:34;;;;;;;14.32;12.90;;;15.20;99.90;;;;;;7368244;19;20018;-61
2023/08/22 05:17:00;;;;;;;14.38;12.98;;;15.30;99.90;;;;;;7367796;19;20533;-62
2023/08/22 05:19:27;;;;;;;14.65;13.25;;;15.30;99.90;;;;;;7368371;19;20022;-62
2023/08/22 05:21:53;;;;;;;15.75;14.13;;;15.40;99.90;;;;;;7368942;19;20351;-61
2023/08/22 05:24:20;;;;;;;15.07;13.55;;;15.50;99.90;;;;;;7365330;19;20774;-61
2023/08/22 05:26:46;;;;;;;14.82;13.07;;;15.60;99.90;;;;;;7365120;19;20391;-61
2023/08/22 05:29:12;;;;;;;16.10;12.52;;;15.70;99.90;;;;;;7366176;19;20011;-61
2023/08/22 05:31:39;;;;;;;14.13;12.38;;;15.90;99.90;;;;;;7367950;19;20478;-62
2023/08/22 05:34:05;;;;;;;11.45;10.27;;;16.10;99.90;;;;;;7364414;19;20022;-61
2023/08/22 05:36:31;;;;;;;11.40;9.02;;;16.30;99.90;;;;;;7369404;19;20515;-61
2023/08/22 05:38:58;;;;;;;12.93;10.23;;;16.40;99.90;;;;;;7367409;19;20047;-62
2023/08/22 05:41:24;;;;;;;12.27;10.43;;;16.40;99.90;;;;;;7367268;19;20022;-61
2023/08/22 05:43:50;;;;;;;13.20;10.48;;;16.50;99.90;;;;;;7367742;19;20024;-62
2023/08/22 05:46:17;;;;;;;12.68;11.48;;;16.60;99.90;;;;;;7365633;19;20044;-65
2023/08/22 05:48:44;;;;;;;12.95;11.05;;;16.80;99.90;;;;;;7366570;19;20018;-62
2023/08/22 05:51:11;;;;;;;12.32;11.02;;;16.90;99.90;;;;;;7366583;19;20532;-62
2023/08/22 05:53:38;;;;;;;13.15;11.63;;;17.00;99.90;;;;;;7367659;19;20486;-62
2023/08/22 05:56:05;;;;;;;13.32;10.98;;;17.10;99.90;;;;;;7368195;19;20811;-62
2023/08/22 05:58:34;;;;;;;14.35;10.93;;;17.30;99.90;;;;;;7370659;19;20062;-62
2023/08/22 06:01:10;;;;;;;10.73;9.63;;;17.50;99.90;;;;;;7369210;19;20006;-63
2023/08/22 06:03:38;;;;;;;11.88;9.70;;;17.80;99.90;;;;;;7368459;19;20066;-62
2023/08/22 06:06:05;;;;;;;12.23;9.02;;;18.00;99.90;;;;;;7366773;19;20010;-63
2023/08/22 06:08:31;;;;;;;11.60;8.95;;;18.20;99.90;;;;;;7369366;19;20022;-63
2023/08/22 06:10:58;;;;;;;15.18;9.85;;;18.40;99.90;;;;;;7365890;19;20456;-64
2023/08/22 06:13:25;;;;;;;13.25;9.55;;;18.50;99.90;;;;;;7367000;19;20014;-63
2023/08/22 06:15:58;;;;;;;14.32;10.13;;;18.70;99.90;;;;;;7367598;19;20026;-63
2023/08/22 06:18:25;;;;;;;12.93;11.18;;;18.80;99.90;;;;;;7375558;19;20086;-63
2023/08/22 06:20:52;;;;;;;13.95;10.02;;;19.00;99.90;;;;;;7375216;19;20504;-63
2023/08/22 06:23:18;;;;;;;14.52;9.60;;;19.00;99.90;;;;;;7372917;19;20025;-65
2023/08/22 06:25:47;;;;;;;13.60;9.77;;;18.90;99.90;;;;;;7372120;19;20044;-63
2023/08/22 06:28:15;;;;;;;14.30;10.45;;;19.00;99.90;;;;;;7371370;19;20014;-62
2023/08/22 06:30:41;;;;;;;15.20;10.95;;;18.90;99.90;;;;;;7375086;19;20025;-63
2023/08/22 06:33:08;;;;;;;11.38;10.02;;;18.90;99.90;;;;;;7371203;19;20018;-63
2023/08/22 06:35:35;;;;;;;17.33;11.10;;;18.90;99.90;;;;;;7373981;19;20870;-62
2023/08/22 06:38:01;;;;;;;14.30;11.25;;;18.90;99.90;;;;;;7372837;19;20022;-61
2023/08/22 06:40:27;;;;;;;13.45;11.70;;;18.80;99.90;;;;;;7374742;19;20018;-62
2023/08/22 06:42:53;;;;;;;14.48;11.45;;;18.80;99.90;;;;;;7371401;19;20029;-62
2023/08/22 06:45:31;;;;;;;13.70;10.90;;;18.80;99.90;;;;;;7373637;19;20066;-64
2023/08/22 06:47:57;;;;;;;14.93;11.40;;;18.90;99.90;;;;;;7376044;19;20019;-64
2023/08/22 06:50:23;;;;;;;13.43;10.88;;;19.00;99.90;;;;;;7374411;19;20623;-63
2023/08/22 06:52:50;;;;;;;14.85;10.95;;;19.00;99.90;;;;;;7373822;19;20021;-65
2023/08/22 06:55:16;;;;;;;18.15;11.30;;;19.10;99.90;;;;;;7372427;19;20376;-62
2023/08/22 06:57:43;;;;;;;16.13;10.77;;;19.20;99.90;;;;;;7371469;19;20338;-62
2023/08/22 07:00:16;;;;;;;18.27;11.13;;;19.40;99.90;;;;;;7374887;19;20018;-62
2023/08/22 07:02:45;;;;;;;17.80;10.32;;;19.50;99.90;;;;;;7368254;19;20034;-62
2023/08/22 07:05:14;;;;;;;19.70;10.60;;;19.80;99.90;;;;;;7371574;19;20014;-63
2023/08/22 07:07:41;;;;;;;18.67;9.32;;;20.10;99.90;;;;;;7370906;19;20018;-64
2023/08/22 07:10:09;;;;;;;19.88;9.48;;;20.40;99.90;;;;;;7374124;19;20043;-63
2023/08/22 07:12:36;;;;;;;12.15;9.20;;;20.80;99.90;;;;;;7370679;19;20117;-63
2023/08/22 07:15:05;;;;;;;15.05;8.40;;;21.20;99.90;;;;;;7373324;19;20023;-63
2023/08/22 07:17:32;;;;;;;11.32;8.07;;;21.50;99.90;;;;;;7369506;19;20489;-63
2023/08/22 07:19:58;;;;;;;14.55;8.57;;;21.80;99.90;;;;;;7371666;19;20019;-63
2023/08/22 07:22:24;;;;;;;12.55;8.43;;;21.90;99.90;;;;;;7371487;19;20050;-66
2023/08/22 07:24:50;;;;;;;11.60;7.20;;;22.30;99.90;;;;;;7369160;19;20025;-63
2023/08/22 07:27:17;;;;;;;10.27;6.32;;;22.50;99.90;;;;;;7369513;19;20491;-63
2023/08/22 07:29:43;;;;;;;10.90;7.05;;;22.90;99.90;;;;;;7369685;19;20485;-63
2023/08/22 07:32:10;;;;;;;10.88;6.20;;;23.20;99.90;;;;;;7368316;19;20340;-63
2023/08/22 07:34:37;;;;;;;11.32;6.57;;;23.50;99.90;;;;;;7371166;19;20019;-64
2023/08/22 07:37:03;;;;;;;10.75;6.03;;;23.50;99.90;;;;;;7371200;19;20501;-65
2023/08/22 07:39:31;;;;;;;9.65;6.28;;;23.60;99.90;;;;;;7370660;19;20022;-64
2023/08/22 07:41:57;;;;;;;7.55;4.97;;;24.00;99.90;;;;;;7373652;19;20026;-64
2023/08/22 07:44:24;;;;;;;10.40;5.18;;;24.40;99.90;;;;;;7371947;19;20014;-65
2023/08/22 07:46:51;;;;;;;10.48;5.63;;;24.80;99.90;;;;;;7373810;19;20019;-64
2023/08/22 07:49:17;;;;;;;19.77;17.52;;;24.80;99.90;;;;;;7370435;19;20029;-61
2023/08/22 07:51:43;;;;;;;8.20;5.22;;;24.80;99.90;;;;;;7366358;19;20625;-61
2023/08/22 07:54:10;;;;;;;10.48;5.05;;;24.70;99.90;;;;;;7366346;19;20010;-61
2023/08/22 07:56:36;;;;;;;11.73;5.47;;;24.60;99.90;;;;;;7366767;19;20018;-61
2023/08/22 07:59:02;;;;;;;7.78;5.03;;;24.50;99.90;;;;;;7370835;19;20026;-61
2023/08/22 08:01:29;;;;;;;7.05;5.03;;;24.50;99.90;;;;;;7368178;19;20063;-61
2023/08/22 08:03:58;;;;;;;7.53;4.68;;;24.60;99.90;;;;;;7368695;19;20024;-62
2023/08/22 08:06:24;;;;;;;7.70;4.68;;;24.80;99.90;;;;;;7367671;19;20018;-62
2023/08/22 08:08:50;;;;;;;8.32;4.30;;;24.80;99.90;;;;;;7373108;19;20011;-62
2023/08/22 08:11:17;;;;;;;8.73;4.75;;;25.10;99.90;;;;;;7370842;19;20018;-62
2023/08/22 08:13:43;;;;;;;8.90;4.60;;;25.10;99.90;;;;;;7370861;19;20019;-66
2023/08/22 08:16:12;;;;;;;7.70;4.65;;;25.00;99.90;;;;;;7370064;19;20018;-61
2023/08/22 08:18:38;;;;;;;5.50;3.60;;;25.20;99.90;;;;;;7366756;19;20015;-62
2023/08/22 08:21:04;;;;;;;4.18;2.63;;;25.10;99.90;;;;;;7371550;19;20014;-66
2023/08/22 08:23:31;;;;;;;8.25;2.80;;;25.00;99.90;;;;;;7371485;19;20616;-65
2023/08/22 08:25:57;;;;;;;5.18;2.10;;;24.90;99.90;;;;;;7370179;19;20011;-64
2023/08/22 08:28:25;;;;;;;4.72;2.53;;;24.80;99.90;;;;;;7372119;19;20022;-68
2023/08/22 08:30:51;;;;;;;5.70;3.15;;;24.70;99.90;;;;;;7372915;19;20455;-66
2023/08/22 08:33:17;;;;;;;7.57;2.38;;;24.80;99.90;;;;;;7372118;19;20030;-66
2023/08/22 08:35:44;;;;;;;5.25;3.05;;;24.60;99.90;;;;;;7368996;19;20457;-66
2023/08/22 08:38:10;;;;;;;4.40;2.45;;;24.50;99.90;;;;;;7371583;19;20022;-66
2023/08/22 08:40:37;;;;;;;5.07;2.55;;;24.60;99.90;;;;;;7367170;19;20045;-67
2023/08/22 08:43:03;;;;;;;6.28;2.35;;;24.50;99.90;;;;;;7370970;19;20018;-66
2023/08/22 08:45:33;;;;;;;5.13;2.20;;;24.70;99.90;;;;;;7369319;19;20022;-67
2023/08/22 08:48:03;;;;;;;4.00;2.22;;;25.00;99.90;;;;;;7368130;19;20020;-66
2023/08/22 08:50:31;;;;;;;6.00;2.55;;;25.30;99.90;;;;;;7368187;19;20014;-66
2023/08/22 08:52:58;;;;;;;4.70;2.17;;;25.50;99.90;;;;;;7370057;19;20014;-61
2023/08/22 08:55:27;;;;;;;5.00;1.63;;;25.50;99.90;;;;;;7373232;19;20039;-59
2023/08/22 08:57:56;;;;;;;4.05;1.60;;;25.30;99.90;;;;;;7363815;19;20050;-61
2023/08/22 09:00:22;;;;;;;4.03;1.73;;;25.00;99.90;;;;;;7373390;19;20379;-61
2023/08/22 09:02:49;;;;;;;5.18;1.50;;;24.80;99.90;;;;;;7368989;19;20024;-61
2023/08/22 09:05:16;;;;;;;3.35;2.20;;;24.60;99.90;;;;;;7370244;19;20133;-60
2023/08/22 09:07:45;;;;;;;6.57;2.08;;;24.60;99.90;;;;;;7364935;19;20446;-58
2023/08/22 09:10:11;;;;;;;3.60;1.63;;;24.80;99.90;;;;;;7370834;19;20018;-62
2023/08/22 09:16:16;;;;;;;4.72;2.45;;;24.80;99.90;;;;;;7369765;19;20015;-65
2023/08/22 09:18:42;;;;;;;3.08;2.08;;;24.90;99.90;;;;;;7368309;19;20042;-68
2023/08/22 09:21:10;;;;;;;3.78;2.15;;;24.90;99.90;;;;;;7366610;19;20022;-64
2023/08/22 09:23:36;;;;;;;6.97;1.92;;;24.90;99.90;;;;;;7364459;19;20014;-65
2023/08/22 09:26:03;;;;;;;4.82;2.13;;;24.90;99.90;;;;;;7370159;19;20018;-65
2023/08/22 09:28:29;;;;;;;4.47;2.30;;;25.10;99.90;;;;;;7364239;19;20018;-65
2023/08/22 09:30:56;;;;;;;3.53;1.58;;;25.70;99.90;;;;;;7365872;19;20479;-66
2023/08/22 09:33:22;;;;;;;4.70;1.73;;;26.30;99.90;;;;;;7368151;19;20486;-65
2023/08/22 09:35:55;;;;;;;3.55;1.70;;;26.70;99.90;;;;;;7368059;19;20022;-65
2023/08/22 09:38:21;;;;;;;7.03;3.15;;;27.40;98.60;;;;;;7365870;19;20546;-61
2023/08/22 09:40:54;;;;;;;7.05;4.95;;;28.10;96.40;;;;;;7365184;19;20524;-62
2023/08/22 09:43:21;;;;;;;7.68;4.47;;;28.20;94.60;;;;;;7364115;19;20030;-60
2023/08/22 09:45:50;;;;;;;6.28;4.45;;;28.50;93.90;;;;;;7364755;19;20474;-66
2023/08/22 09:48:23;;;;;;;6.93;2.58;;;28.60;91.50;;;;;;7369732;19;20477;-62
2023/08/22 09:50:56;;;;;;;11.00;8.00;;;28.80;90.40;;;;;;7363573;19;20277;-66
2023/08/22 09:53:24;;;;;;;61.65;55.75;;;28.90;85.40;;;;;;7366437;19;20510;-67
2023/08/22 09:55:53;;;;;;;14.80;12.55;;;29.60;82.80;;;;;;7366730;19;20465;-68
2023/08/22 09:58:21;;;;;;;22.65;20.40;;;29.60;80.20;;;;;;7367035;19;20033;-68
2023/08/22 10:00:50;;;;;;;33.75;30.60;;;29.70;78.40;;;;;;7371976;19;20028;-68
2023/08/22 10:03:17;;;;;;;25.23;22.77;;;30.30;75.70;;;;;;7366275;19;20021;-68
2023/08/22 10:05:45;;;;;;;9.55;8.57;;;30.20;73.60;;;;;;7368669;19;20059;-68
2023/08/22 10:08:12;;;;;;;9.95;8.98;;;30.50;72.30;;;;;;7368728;19;20018;-68
2023/08/22 10:10:39;;;;;;;9.02;6.60;;;30.40;72.00;;;;;;7368327;19;20022;-67
2023/08/22 10:13:06;;;;;;;7.88;5.78;;;30.50;70.10;;;;;;7369813;19;20029;-66
2023/08/22 10:15:35;;;;;;;9.20;5.03;;;30.20;70.40;;;;;;7370379;19;20026;-66
2023/08/22 10:18:02;;;;;;;5.35;3.55;;;29.70;71.10;;;;;;7371862;19;20767;-66
2023/08/22 10:20:32;;;;;;;6.72;2.30;;;29.10;71.20;;;;;;7369981;19;20393;-65
2023/08/22 10:22:59;;;;;;;9.82;6.75;;;28.90;71.90;;;;;;7367658;19;20386;-65
2023/08/22 10:25:48;;;;;;;6.53;3.03;;;29.30;72.80;;;;;;7368899;19;20030;-67
2023/08/22 10:28:16;;;;;;;6.57;3.50;;;29.90;72.50;;;;;;7367252;19;20019;-63
2023/08/22 10:31:04;;;;;;;7.32;4.40;;;30.60;71.40;;;;;;7366681;19;20053;-66
2023/08/22 10:33:31;;;;;;;15.13;12.93;;;31.10;68.00;;;;;;7368651;19;20026;-67
2023/08/22 10:36:03;;;;;;;11.73;4.75;;;31.20;68.00;;;;;;7368245;19;20014;-64
2023/08/22 10:38:50;;;;;;;29.90;27.15;;;30.40;68.30;;;;;;7368819;19;20025;-65
2023/08/22 10:41:16;;;;;;;6.00;2.75;;;30.80;68.70;;;;;;7366604;19;20006;-67
2023/08/22 10:43:43;;;;;;;6.38;3.85;;;29.70;69.30;;;;;;7366439;19;20038;-65
2023/08/22 10:46:09;;;;;;;8.63;3.78;;;29.20;69.70;;;;;;7368076;19;20015;-67
2023/08/22 10:48:36;;;;;;;6.97;3.92;;;29.10;70.90;;;;;;7361927;19;20577;-67
2023/08/22 10:51:07;;;;;;;8.38;7.45;;;28.80;70.60;;;;;;7367076;19;20022;-67
2023/08/22 10:53:44;;;;;;;5.40;4.15;;;28.90;71.90;;;;;;7365498;19;20410;-66
2023/08/22 10:56:23;;;;;;;9.82;5.13;;;28.70;71.50;;;;;;7365240;19;20029;-66
2023/08/22 10:59:00;;;;;;;7.93;5.00;;;29.00;74.00;;;;;;7364050;19;20257;-64
2023/08/22 11:01:26;;;;;;;7.53;4.32;;;28.50;74.70;;;;;;7367897;19;20014;-66
2023/08/22 11:03:55;;;;;;;8.20;3.42;;;28.50;74.40;;;;;;7370274;19;20022;-67
2023/08/22 11:06:23;;;;;;;6.93;4.00;;;29.50;75.10;;;;;;7371953;19;20517;-67
2023/08/22 11:08:50;;;;;;;9.35;7.90;;;29.50;74.20;;;;;;7375149;19;20490;-67
2023/08/22 11:11:19;;;;;;;5.10;2.40;;;29.40;71.50;;;;;;7375818;19;20014;-67
2023/08/22 11:13:46;;;;;;;10.38;8.30;;;29.50;71.30;;;;;;7376338;19;20022;-67
2023/08/22 11:16:15;;;;;;;12.32;8.52;;;29.90;70.40;;;;;;7371351;19;20014;-71
2023/08/22 11:18:42;;;;;;;7.97;6.47;;;29.90;68.60;;;;;;7373375;19;20014;-68
2023/08/22 11:21:08;;;;;;;7.45;4.53;;;30.10;68.40;;;;;;7374282;19;20494;-70
2023/08/22 11:23:40;;;;;;;3.55;2.08;;;30.20;66.90;;;;;;7370628;19;20461;-66
2023/08/22 11:26:07;;;;;;;5.13;2.63;;;30.90;65.20;;;;;;7375469;19;20459;-65
2023/08/22 11:28:36;;;;;;;5.10;2.10;;;30.80;64.70;;;;;;7372653;19;20453;-66
2023/08/22 11:31:04;;;;;;;5.07;1.85;;;30.90;63.40;;;;;;7373052;19;20014;-66
2023/08/22 11:33:50;;;;;;;3.88;1.10;;;31.40;62.30;;;;;;7371856;19;20018;-67
2023/08/22 11:36:17;;;;;;;2.72;1.52;;;31.40;61.30;;;;;;7372280;19;20015;-65
2023/08/22 11:38:47;;;;;;;2.47;0.80;;;31.60;60.20;;;;;;7374798;19;20026;-65
2023/08/22 11:41:14;;;;;;;4.47;2.70;;;31.80;58.90;;;;;;7369944;19;20022;-64
2023/08/22 11:43:55;;;;;;;5.97;2.90;;;31.60;58.70;;;;;;7373856;19;20481;-65
2023/08/22 11:46:22;;;;;;;4.10;2.38;;;32.20;56.80;;;;;;7366485;19;20019;-65
2023/08/22 11:49:08;;;;;;;6.15;5.20;;;32.30;56.60;;;;;;7374689;19;20572;-65
2023/08/22 11:51:34;;;;;;;3.75;1.35;;;31.90;56.40;;;;;;7365163;19;20018;-65
2023/08/22 11:54:01;;;;;;;7.47;5.97;;;32.40;57.10;;;;;;7369616;19;20022;-62
2023/08/22 11:56:27;;;;;;;8.80;7.90;;;32.80;56.20;;;;;;7372790;19;20444;-64
2023/08/22 11:58:53;;;;;;;19.05;17.10;;;32.40;55.30;;;;;;7367219;19;20015;-62
2023/08/22 12:01:22;;;;;;;19.23;17.23;;;32.30;54.80;;;;;;7370082;19;20015;-61
2023/08/22 12:03:49;;;;;;;4.43;2.85;;;32.30;53.90;;;;;;7370791;19;20391;-62
2023/08/22 12:06:15;;;;;;;16.35;14.80;;;32.60;53.70;;;;;;7364646;19;20025;-62
2023/08/22 12:08:42;;;;;;;13.80;12.40;;;32.60;53.80;;;;;;7371409;19;20015;-62
2023/08/22 12:11:22;;;;;;;4.68;1.95;;;32.50;53.40;;;;;;7369573;19;20025;-63
2023/08/22 12:13:49;;;;;;;9.98;7.50;;;32.20;52.90;;;;;;7369655;19;20108;-62
2023/08/22 12:16:15;;;;;;;5.05;2.42;;;32.20;54.20;;;;;;7368926;19;20070;-62
2023/08/22 12:18:42;;;;;;;3.03;1.67;;;32.20;55.00;;;;;;7371509;19;20432;-63
2023/08/22 12:21:08;;;;;;;8.23;7.47;;;32.20;55.10;;;;;;7370697;19;20014;-63
2023/08/22 12:23:34;;;;;;;3.88;1.65;;;32.30;55.20;;;;;;7372769;19;20418;-63
2023/08/22 12:26:01;;;;;;;3.92;1.80;;;32.70;55.40;;;;;;7368893;19;20607;-63
2023/08/22 12:28:27;;;;;;;5.95;1.30;;;32.80;55.10;;;;;;7371326;19;20090;-63
2023/08/22 12:30:53;;;;;;;3.35;2.05;;;33.20;54.10;;;;;;7366761;19;20485;-61
2023/08/22 12:33:20;;;;;;;5.68;4.47;;;33.20;53.20;;;;;;7370616;19;20415;-61
2023/08/22 12:35:46;;;;;;;5.82;3.45;;;33.10;51.50;;;;;;7371719;19;20806;-61
2023/08/22 12:38:13;;;;;;;16.92;15.07;;;32.80;52.60;;;;;;7366218;19;20019;-62
2023/08/22 12:40:39;;;;;;;14.95;13.50;;;33.10;52.90;;;;;;7371399;19;20581;-62
2023/08/22 12:43:05;;;;;;;21.65;19.42;;;33.20;53.20;;;;;;7370651;19;21568;-62
2023/08/22 12:45:32;;;;;;;4.63;3.10;;;33.40;52.80;;;;;;7368732;19;20011;-62